M I D A S
Marine Information and Data Acquisition System
Tripno 681 of the Zeeleeuw from 2004-04-01 06:13:06 to 2004-04-01 13:39:56
Back to CruiseResearch ActivitiesStationsMapUnderway DataData graphs

EquipmentUnitsComment
TimeDGPSUTC
LatitudeDGPSDM.mWGS84
LongitudeDGPSDM.mWGS84
HeadingGyrodeg 
SOGDGPSknotsSpeed over ground
COGDGPSdegCourse over ground
DepthEcho soundermeters200 kHz
Missing or incorrect values are displayed as -999
Navigation data collected by the RV Zeeleeuw from 2004-04-01 06:13:06 to 2004-04-01 13:39:56
Time Latitude Longitude Heading SOG COG Depth
2004-04-01 06:14:08 51°13.597 2°56.091 114.7 1.5 295 7.5
2004-04-01 06:15:09 51°13.617 2°56.015 115.6 3.8 292 -999
2004-04-01 06:16:09 51°13.65 2°55.91 123 4.9 299 -999
2004-04-01 06:17:09 51°13.674 2°55.78 98.4 5 277 -999
2004-04-01 06:18:08 51°13.691 2°55.765 50.5 2.6 37 13.8
2004-04-01 06:19:09 51°13.685 2°55.761 21.9 2 203 -999
2004-04-01 06:20:08 51°13.732 2°55.731 335.7 4.6 331 10.3
2004-04-01 06:21:09 51°13.831 2°55.638 333.8 8 330 10.2
2004-04-01 06:22:08 51°13.948 2°55.542 338.9 7.8 334 10
2004-04-01 06:23:08 51°14.071 2°55.455 342 8.6 337 11.2
2004-04-01 06:24:09 51°14.221 2°55.327 330.2 11 323 11.2
2004-04-01 06:25:08 51°14.351 2°55.106 312.6 12.1 305 10.5
2004-04-01 06:26:08 51°14.479 2°54.822 318.3 13.7 313 10.7
2004-04-01 06:27:08 51°14.639 2°54.559 320.3 13.8 314 9.9
2004-04-01 06:28:08 51°14.799 2°54.293 320 13.9 314 10.1
2004-04-01 06:29:08 51°14.956 2°54.03 320.7 13.6 314 9.2
2004-04-01 06:30:08 51°15.12 2°53.776 331.4 13.7 325 9.9
2004-04-01 06:31:09 51°15.318 2°53.586 336.6 13.8 330 10.2
2004-04-01 06:32:08 51°15.523 2°53.444 347.9 13.7 340 11.1
2004-04-01 06:33:08 51°15.736 2°53.312 345.9 13.7 338 11.7
2004-04-01 06:34:08 51°15.947 2°53.177 346.1 13.7 338 12.1
2004-04-01 06:35:08 51°16.161 2°53.05 350.4 13.6 342 12.6
2004-04-01 06:36:08 51°16.378 2°52.946 349.4 13.5 343 12.7
2004-04-01 06:37:08 51°16.594 2°52.842 349.2 13.6 343 11.9
2004-04-01 06:38:08 51°16.807 2°52.736 349.8 13.2 343 10
2004-04-01 06:39:08 51°17.019 2°52.635 352.7 13.5 347 10.6
2004-04-01 06:40:08 51°17.236 2°52.553 352.8 13.4 346 10.3
2004-04-01 06:41:08 51°17.453 2°52.469 353.4 13.5 347 10.7
2004-04-01 06:42:08 51°17.674 2°52.427 4.5 13.4 359 10.7
2004-04-01 06:43:08 51°17.896 2°52.439 12 13.4 7 10.9
2004-04-01 06:44:08 51°18.115 2°52.496 17.4 13.4 14 11.2
2004-04-01 06:45:08 51°18.321 2°52.629 33.9 13.3 29 11.4
2004-04-01 06:46:08 51°18.471 2°52.884 57.8 13.3 53 11.7
2004-04-01 06:47:09 51°18.596 2°53.184 62.5 13.4 58 11.8
2004-04-01 06:48:08 51°18.706 2°53.488 70.6 13.5 67 11.9
2004-04-01 06:49:08 51°18.795 2°53.818 71 13.6 66 11.9
2004-04-01 06:50:08 51°18.887 2°54.147 70 13.6 65 12
2004-04-01 06:51:08 51°18.981 2°54.475 70.3 13.6 65 12
2004-04-01 06:52:08 51°19.077 2°54.801 69.4 13.5 65 11.9
2004-04-01 06:53:09 51°19.175 2°55.131 69.3 13.5 65 12
2004-04-01 06:54:08 51°19.27 2°55.451 69.2 13.6 64 12
2004-04-01 06:55:08 51°19.366 2°55.778 69.5 13.7 65 11.8
2004-04-01 06:56:09 51°19.465 2°56.11 68.9 13.7 64 11.8
2004-04-01 06:57:08 51°19.56 2°56.431 69.6 13.6 65 11.7
2004-04-01 06:58:08 51°19.658 2°56.757 69.1 13.6 65 11.7
2004-04-01 06:59:08 51°19.754 2°57.084 69 13.6 64 11.5
2004-04-01 07:00:09 51°19.851 2°57.417 69.4 13.6 65 11.6
2004-04-01 07:01:08 51°19.941 2°57.744 72.6 13.7 68 11.5
2004-04-01 07:02:08 51°20.023 2°58.079 72.6 13.6 69 11.4
2004-04-01 07:03:08 51°20.106 2°58.414 72.8 13.5 68 11.2
2004-04-01 07:04:08 51°20.19 2°58.746 72 13.5 68 11.2
2004-04-01 07:05:08 51°20.263 2°59.086 75.5 13.6 72 11.3
2004-04-01 07:06:08 51°20.337 2°59.428 75.5 13.6 71 11.1
2004-04-01 07:07:08 51°20.413 2°59.77 75.8 13.6 71 10.9
2004-04-01 07:08:09 51°20.49 3°0.116 75.3 13.6 70 11
2004-04-01 07:09:08 51°20.564 3°0.452 75.5 13.6 70 10.8
2004-04-01 07:10:08 51°20.633 3°0.795 80.6 13.6 77 10.8
2004-04-01 07:11:09 51°20.689 3°1.152 80.6 13.6 76 10.8
2004-04-01 07:12:08 51°20.744 3°1.498 79.5 13.7 74 10.7
2004-04-01 07:13:08 51°20.804 3°1.85 79.2 13.7 75 11
2004-04-01 07:14:08 51°20.86 3°2.202 83.7 13.7 81 10.9
2004-04-01 07:15:08 51°20.872 3°2.565 91.7 13.7 88 10.7
2004-04-01 07:16:08 51°20.885 3°2.928 91 13.7 87 10.3
2004-04-01 07:17:08 51°20.898 3°3.285 90.7 12.1 87 10.1
2004-04-01 07:18:08 51°20.948 3°3.501 66 7.2 60 10.6
2004-04-01 07:19:08 51°20.993 3°3.631 69.1 4.6 64 10.8
2004-04-01 07:20:08 51°21.014 3°3.722 80.7 3.2 71 10.9
2004-04-01 07:21:08 51°21.027 3°3.79 83.9 2.4 72 10.9
2004-04-01 07:22:08 51°21.038 3°3.843 83.8 2.3 73 10.9
2004-04-01 07:23:08 51°21.06 3°3.952 73.5 4.9 68 10.9
2004-04-01 07:24:08 51°21.095 3°4.061 64 4.4 59 11
2004-04-01 07:25:08 51°21.13 3°4.152 66.4 3.8 61 11.1
2004-04-01 07:26:09 51°21.159 3°4.236 67.6 3.5 60 11
2004-04-01 07:27:09 51°21.187 3°4.315 66.9 3.4 58 11.2
2004-04-01 07:28:08 51°21.212 3°4.392 70.5 3.3 64 11.3
2004-04-01 07:29:08 51°21.235 3°4.471 73.5 3.3 67 11.3
2004-04-01 07:30:08 51°21.255 3°4.551 75.8 3.2 68 11.3
2004-04-01 07:31:08 51°21.275 3°4.631 77.6 3.3 68 11.3
2004-04-01 07:32:09 51°21.293 3°4.713 79.9 3.3 74 11.3
2004-04-01 07:33:08 51°21.309 3°4.795 82.4 3.3 73 11.3
2004-04-01 07:34:09 51°21.322 3°4.88 84.8 3.3 74 11.4
2004-04-01 07:35:08 51°21.334 3°4.963 86.6 3.3 79 11.5
2004-04-01 07:36:09 51°21.345 3°5.051 87.8 3.3 80 11.4
2004-04-01 07:37:08 51°21.359 3°5.135 81.5 3.3 74 11.3
2004-04-01 07:38:08 51°21.377 3°5.221 76.4 3.4 69 11.3
2004-04-01 07:39:09 51°21.401 3°5.307 70.4 3.5 64 11.4
2004-04-01 07:40:09 51°21.429 3°5.39 66 3.5 61 11.4
2004-04-01 07:41:08 51°21.454 3°5.471 70.5 3.5 64 11.5
2004-04-01 07:42:08 51°21.478 3°5.555 74.3 3.5 67 11.6
2004-04-01 07:43:08 51°21.499 3°5.642 78.2 3.5 69 11.6
2004-04-01 07:44:09 51°21.516 3°5.731 82 3.5 75 11.6
2004-04-01 07:45:08 51°21.53 3°5.819 84.9 3.5 77 11.7
2004-04-01 07:46:08 51°21.548 3°5.906 74 3.5 66 11.7
2004-04-01 07:47:09 51°21.578 3°5.988 55.6 3.5 54 11.8
2004-04-01 07:48:08 51°21.615 3°6.059 51.5 3.6 51 11.9
2004-04-01 07:49:08 51°21.652 3°6.137 58.3 3.7 55 12.1
2004-04-01 07:50:08 51°21.684 3°6.22 65.9 3.7 62 12.2
2004-04-01 07:51:09 51°21.709 3°6.31 73.2 3.7 67 12.2
2004-04-01 07:52:08 51°21.73 3°6.399 78.8 3.6 70 12.3
2004-04-01 07:53:08 51°21.752 3°6.489 72 3.7 66 12.3
2004-04-01 07:54:08 51°21.781 3°6.576 63.9 3.7 60 12.5
2004-04-01 07:55:08 51°21.81 3°6.661 69.1 3.6 65 12.5
2004-04-01 07:56:08 51°21.835 3°6.747 72.8 3.6 65 12.6
2004-04-01 07:57:08 51°21.86 3°6.835 73.7 3.7 64 12.7
2004-04-01 07:58:08 51°21.891 3°6.953 72.6 4.5 67 12.7
2004-04-01 07:59:08 51°21.914 3°7.049 80 3.4 71 12.8
2004-04-01 08:00:08 51°21.93 3°7.124 83.2 2.8 71 12.9
2004-04-01 08:01:08 51°21.968 3°7.199 25.4 4.1 28 13
2004-04-01 08:02:09 51°22.029 3°7.184 306.6 3.3 311 13.2
2004-04-01 08:03:09 51°22.02 3°7.113 232.3 3.2 221 13.2
2004-04-01 08:04:08 51°21.966 3°7.054 221.3 4.2 214 13.1
2004-04-01 08:05:08 51°21.92 3°6.981 238.9 3.7 233 12.9
2004-04-01 08:06:09 51°21.887 3°6.896 243.1 3.7 239 12.8
2004-04-01 08:07:09 51°21.853 3°6.817 238 3.5 232 12.8
2004-04-01 08:08:08 51°21.816 3°6.745 235.8 3.6 231 12.7
2004-04-01 08:09:09 51°21.78 3°6.672 239.9 3.3 233 12.6
2004-04-01 08:10:09 51°21.75 3°6.603 240.9 3.1 231 12.6
2004-04-01 08:11:09 51°21.723 3°6.535 241.9 3 238 12.5
2004-04-01 08:12:08 51°21.696 3°6.47 240.3 3 234 12.4
2004-04-01 08:13:09 51°21.665 3°6.407 240.2 2.9 237 12.4
2004-04-01 08:14:09 51°21.645 3°6.336 252.5 3 250 12.3
2004-04-01 08:15:09 51°21.625 3°6.263 246 2.9 244 12.2
2004-04-01 08:16:08 51°21.601 3°6.197 241.6 2.9 239 12.3
2004-04-01 08:17:09 51°21.573 3°6.132 237.3 2.9 231 12.2
2004-04-01 08:18:08 51°21.543 3°6.072 238 2.9 235 12.1
2004-04-01 08:19:09 51°21.518 3°6.005 242.9 2.9 241 12
2004-04-01 08:20:09 51°21.494 3°5.94 241.6 2.8 237 12
2004-04-01 08:21:08 51°21.47 3°5.879 240.9 2.7 238 11.9
2004-04-01 08:22:09 51°21.445 3°5.818 238.1 2.5 232 11.8
2004-04-01 08:23:08 51°21.422 3°5.782 226.3 1.6 215 11.8
2004-04-01 08:24:09 51°21.404 3°5.765 221.2 1 204 11.7
2004-04-01 08:25:09 51°21.39 3°5.758 219.1 0.6 201 11.7
2004-04-01 08:26:09 51°21.382 3°5.757 219.2 0.4 176 11.7
2004-04-01 08:27:08 51°21.374 3°5.751 225 1.7 221 11.7
2004-04-01 08:28:09 51°21.384 3°5.656 307.7 6 320 11.7
2004-04-01 08:29:08 51°21.531 3°5.659 7.3 12.7 6 12
2004-04-01 08:30:08 51°21.764 3°5.706 13 14.5 11 12.8
2004-04-01 08:31:08 51°22 3°5.789 14.5 14.5 12 13.3
2004-04-01 08:32:09 51°22.24 3°5.876 14.2 14.5 13 13.6
2004-04-01 08:33:08 51°22.471 3°5.961 14.3 14.5 13 13.7
2004-04-01 08:34:09 51°22.711 3°6.049 14.5 14.5 13 13.4
2004-04-01 08:35:09 51°22.946 3°6.138 14.4 14.5 14 12.9
2004-04-01 08:36:09 51°23.181 3°6.225 14 14.4 12 13.4
2004-04-01 08:37:08 51°23.41 3°6.319 17.1 14.4 16 14.1
2004-04-01 08:38:08 51°23.64 3°6.429 17.7 14.4 16 15.6
2004-04-01 08:39:08 51°23.869 3°6.539 18.3 14.4 18 19.8
2004-04-01 08:40:08 51°24.096 3°6.649 17.7 14.2 17 19.6
2004-04-01 08:41:08 51°24.324 3°6.74 11.6 14 11 14.6
2004-04-01 08:42:08 51°24.554 3°6.811 11.1 14.2 10 13.2
2004-04-01 08:43:08 51°24.786 3°6.856 8.4 13.9 7 12.6
2004-04-01 08:44:09 51°25.019 3°6.9 7.8 13.9 7 11.5
2004-04-01 08:45:08 51°25.245 3°6.941 7.7 14 6 11.2
2004-04-01 08:46:08 51°25.466 3°6.981 9.4 11.2 9 11.6
2004-04-01 08:47:09 51°25.572 3°7.052 18.4 4.1 23 11.9
2004-04-01 08:48:08 51°25.618 3°7.085 14.8 2.9 23 11.9
2004-04-01 08:49:09 51°25.666 3°7.119 15.6 3.7 22 12
2004-04-01 08:50:09 51°25.73 3°7.158 18.5 4.2 22 11.9
2004-04-01 08:51:09 51°25.788 3°7.218 36.4 4 39 11.9
2004-04-01 08:52:09 51°25.83 3°7.293 52.5 3.7 52 11.8
2004-04-01 08:53:09 51°25.863 3°7.375 61.7 3.7 60 11.6
2004-04-01 08:54:08 51°25.891 3°7.458 63.8 3.6 65 11.5
2004-04-01 08:55:08 51°25.919 3°7.544 66 3.6 65 11.3
2004-04-01 08:56:08 51°25.944 3°7.63 67.3 3.6 64 11.2
2004-04-01 08:57:09 51°25.971 3°7.718 67.2 3.6 65 11.4
2004-04-01 08:58:09 51°25.998 3°7.802 63.1 3.6 61 11.4
2004-04-01 08:59:08 51°26.029 3°7.883 58.1 3.6 60 11.4
2004-04-01 09:00:09 51°26.063 3°7.962 54.2 3.3 54 11.7
2004-04-01 09:01:08 51°26.094 3°8.027 50.6 3.2 53 11.4
2004-04-01 09:02:09 51°26.127 3°8.093 48.2 3.1 50 11.4
2004-04-01 09:03:09 51°26.16 3°8.156 45.7 3.1 49 11.8
2004-04-01 09:04:09 51°26.198 3°8.222 42.2 3.1 47 11.5
2004-04-01 09:05:08 51°26.233 3°8.274 39.1 3 41 11.8
2004-04-01 09:06:08 51°26.27 3°8.328 35.5 3.1 40 11.9
2004-04-01 09:07:08 51°26.309 3°8.377 32.5 3 39 12
2004-04-01 09:08:09 51°26.349 3°8.424 29 3 36 12.2
2004-04-01 09:09:09 51°26.389 3°8.469 29 3 37 12.3
2004-04-01 09:10:08 51°26.428 3°8.517 34.6 3 38 12.7
2004-04-01 09:11:08 51°26.466 3°8.571 39.4 3 46 12.9
2004-04-01 09:12:08 51°26.502 3°8.629 43.8 3.1 46 12.9
2004-04-01 09:13:08 51°26.536 3°8.69 48.4 3.1 52 13
2004-04-01 09:14:09 51°26.568 3°8.757 52.9 3.1 56 13.1
2004-04-01 09:15:08 51°26.597 3°8.823 56.1 3.1 54 12.9
2004-04-01 09:16:08 51°26.626 3°8.893 59.6 3.1 59 12.9
2004-04-01 09:17:09 51°26.653 3°8.965 62.4 3.1 60 12.7
2004-04-01 09:18:09 51°26.677 3°9.038 65.9 3.1 60 12.7
2004-04-01 09:19:08 51°26.699 3°9.111 69.1 3.1 68 12.5
2004-04-01 09:20:08 51°26.719 3°9.186 72.4 3.1 68 12.4
2004-04-01 09:21:08 51°26.736 3°9.262 76.9 3 71 12.3
2004-04-01 09:22:09 51°26.75 3°9.339 82 3 75 12.3
2004-04-01 09:23:08 51°26.762 3°9.418 86.6 3 75 12.1
2004-04-01 09:24:08 51°26.771 3°9.488 89 2.5 76 12.2
2004-04-01 09:25:08 51°26.779 3°9.548 91.2 2.2 74 12.2
2004-04-01 09:26:08 51°26.787 3°9.624 89.5 3.7 79 12.3
2004-04-01 09:27:08 51°26.799 3°9.733 84.5 4.3 77 12.2
2004-04-01 09:28:08 51°26.813 3°9.845 85.9 4.2 80 12
2004-04-01 09:29:08 51°26.824 3°9.946 87.9 3.7 81 11.9
2004-04-01 09:30:09 51°26.834 3°10.041 85.9 3.5 82 12
2004-04-01 09:31:09 51°26.848 3°10.135 81.2 3.7 77 12
2004-04-01 09:32:08 51°26.868 3°10.227 69.9 3.8 64 12
2004-04-01 09:33:08 51°26.895 3°10.321 69.7 3.9 65 12.1
2004-04-01 09:34:09 51°26.92 3°10.418 71.8 3.9 68 11.9
2004-04-01 09:35:08 51°26.944 3°10.512 71.1 3.9 65 11.7
2004-04-01 09:36:08 51°26.969 3°10.608 71.1 3.9 69 11.5
2004-04-01 09:37:09 51°26.994 3°10.706 70.5 3.9 67 11.5
2004-04-01 09:38:09 51°27.021 3°10.8 67.1 3.9 63 11.4
2004-04-01 09:39:08 51°27.051 3°10.891 64 3.9 60 11.3
2004-04-01 09:40:09 51°27.083 3°10.984 64.3 3.9 59 11.3
2004-04-01 09:41:09 51°27.114 3°11.077 65.3 4 63 11.3
2004-04-01 09:42:09 51°27.145 3°11.17 65.1 4 63 11.1
2004-04-01 09:43:08 51°27.176 3°11.262 65.3 3.9 61 11
2004-04-01 09:44:09 51°27.206 3°11.355 64.8 3.9 60 11.1
2004-04-01 09:45:08 51°27.235 3°11.444 64.8 3.8 63 11
2004-04-01 09:46:08 51°27.266 3°11.535 63.8 3.9 60 11.1
2004-04-01 09:47:08 51°27.297 3°11.626 65.2 3.9 64 11
2004-04-01 09:48:08 51°27.327 3°11.718 65.8 3.9 64 10.9
2004-04-01 09:49:08 51°27.359 3°11.808 60.8 3.8 58 10.8
2004-04-01 09:50:09 51°27.395 3°11.896 58.8 3.8 57 10.7
2004-04-01 09:51:08 51°27.43 3°11.981 59.7 3.9 54 10.8
2004-04-01 09:52:08 51°27.464 3°12.069 60.7 3.9 58 10.8
2004-04-01 09:53:09 51°27.499 3°12.159 60 3.9 59 10.7
2004-04-01 09:54:09 51°27.533 3°12.246 60.5 3.8 60 10.8
2004-04-01 09:55:09 51°27.567 3°12.333 60.3 3.9 58 10.8
2004-04-01 09:56:08 51°27.6 3°12.418 60 3.9 59 10.8
2004-04-01 09:57:09 51°27.631 3°12.508 68.3 3.8 67 10.8
2004-04-01 09:58:08 51°27.65 3°12.601 84.3 3.6 79 10.8
2004-04-01 09:59:09 51°27.655 3°12.699 96.9 3.6 90 10.8
2004-04-01 10:00:09 51°27.654 3°12.796 102.7 3.8 96 10.8
2004-04-01 10:01:09 51°27.651 3°12.89 105.2 3.2 94 10.8
2004-04-01 10:02:09 51°27.649 3°12.966 103.5 2.6 92 10.8
2004-04-01 10:03:08 51°27.65 3°13.029 98.7 2.3 85 10.8
2004-04-01 10:04:09 51°27.65 3°13.095 109.6 2.2 93 10.8
2004-04-01 10:05:09 51°27.646 3°13.148 119.5 1.8 99 10.8
2004-04-01 10:06:08 51°27.636 3°13.198 134.8 3.3 122 10.8
2004-04-01 10:07:08 51°27.555 3°13.21 213.5 7.1 207 10.6
2004-04-01 10:08:09 51°27.416 3°12.998 234 12.6 230 10.3
2004-04-01 10:09:09 51°27.273 3°12.741 232.3 12.9 228 10.1
2004-04-01 10:10:08 51°27.129 3°12.491 231 13 227 9.9
2004-04-01 10:11:09 51°26.979 3°12.234 231.2 13 227 9.8
2004-04-01 10:12:08 51°26.834 3°11.985 231 13.2 226 9.8
2004-04-01 10:13:09 51°26.667 3°11.757 222.8 12.8 217 9.8
2004-04-01 10:14:08 51°26.499 3°11.546 222.8 13.1 218 9.9
2004-04-01 10:15:09 51°26.327 3°11.327 222.6 12.9 218 10
2004-04-01 10:16:08 51°26.142 3°11.161 208.6 12.9 204 9.8
2004-04-01 10:17:09 51°25.932 3°11.051 199.5 13.3 193 9.5
2004-04-01 10:18:08 51°25.718 3°11.031 185.2 13.3 179 9.4
2004-04-01 10:19:09 51°25.505 3°11.145 157.5 13.6 149 10.4
2004-04-01 10:20:08 51°25.336 3°11.381 144.5 13.8 134 11.4
2004-04-01 10:21:09 51°25.199 3°11.683 127.7 13.9 115 11.7
2004-04-01 10:22:09 51°25.122 3°12.036 111.6 14.3 104 12.3
2004-04-01 10:23:09 51°25.075 3°12.407 108.3 14.3 103 13
2004-04-01 10:24:09 51°25.024 3°12.78 109.6 14.2 101 13.9
2004-04-01 10:25:09 51°25.05 3°13.155 86 13 80 14.3
2004-04-01 10:26:09 51°25.065 3°13.382 100.4 5.3 90 14.6
2004-04-01 10:27:09 51°25.078 3°13.475 76.9 3.3 68 14.7
2004-04-01 10:28:09 51°25.103 3°13.555 66.2 3.8 61 14.6
2004-04-01 10:29:09 51°25.129 3°13.653 80.8 3.9 72 14.3
2004-04-01 10:30:08 51°25.14 3°13.75 94.1 3.7 84 14.3
2004-04-01 10:31:09 51°25.143 3°13.847 104.5 3.4 92 14.2
2004-04-01 10:32:09 51°25.139 3°13.937 112.2 3.3 98 14.3
2004-04-01 10:33:09 51°25.133 3°14.027 111.7 3.4 96 14.4
2004-04-01 10:34:09 51°25.13 3°14.116 107.8 3.4 92 14.5
2004-04-01 10:35:09 51°25.13 3°14.206 105.6 3.4 89 14.6
2004-04-01 10:36:09 51°25.131 3°14.296 104.3 3.4 88 14.7
2004-04-01 10:37:08 51°25.134 3°14.386 101.3 3.4 87 14.8
2004-04-01 10:38:09 51°25.139 3°14.48 102.3 3.5 85 14.9
2004-04-01 10:39:09 51°25.141 3°14.571 107.3 3.4 87 15
2004-04-01 10:40:09 51°25.139 3°14.659 113.9 3.3 94 15
2004-04-01 10:41:08 51°25.131 3°14.743 121.4 3.2 101 15
2004-04-01 10:42:09 51°25.121 3°14.825 121.4 3.1 100 15.2
2004-04-01 10:43:09 51°25.114 3°14.909 112.4 3.2 93 15.2
2004-04-01 10:44:09 51°25.116 3°14.995 99.7 3.2 85 15.4
2004-04-01 10:45:09 51°25.126 3°15.082 92.7 3.3 79 15.4
2004-04-01 10:46:08 51°25.136 3°15.168 94.5 3.3 83 15.3
2004-04-01 10:47:09 51°25.144 3°15.257 99.9 3.3 84 15.2
2004-04-01 10:48:09 51°25.148 3°15.345 106.7 3.3 88 15.2
2004-04-01 10:49:08 51°25.147 3°15.431 113.1 3.3 94 15.2
2004-04-01 10:50:09 51°25.14 3°15.519 116.8 3.2 99 15.3
2004-04-01 10:51:08 51°25.136 3°15.606 110.9 3.4 92 15.4
2004-04-01 10:52:08 51°25.134 3°15.695 106.6 3.3 91 15.5
2004-04-01 10:53:08 51°25.135 3°15.782 104.9 3.2 91 15.6
2004-04-01 10:54:09 51°25.138 3°15.87 102.7 3.3 87 15.6
2004-04-01 10:55:09 51°25.143 3°15.959 98.4 3.2 82 15.4
2004-04-01 10:56:08 51°25.152 3°16.034 93.6 2.7 77 15.2
2004-04-01 10:57:08 51°25.163 3°16.1 88.7 2.4 72 15
2004-04-01 10:58:09 51°25.177 3°16.162 84.5 3 69 14.7
2004-04-01 10:59:09 51°25.146 3°16.256 167.1 4.5 160 15
2004-04-01 11:00:08 51°25.078 3°16.207 224.8 4.5 220 15.9
2004-04-01 11:01:09 51°25.046 3°16.124 252.9 3.1 255 16.2
2004-04-01 11:02:09 51°25.039 3°16.048 259.5 2.8 266 16.2
2004-04-01 11:03:09 51°25.035 3°15.974 261.8 2.9 267 16.3
2004-04-01 11:04:08 51°25.038 3°15.891 271.8 3.4 278 16.4
2004-04-01 11:05:08 51°25.044 3°15.799 268.8 3.4 273 16.4
2004-04-01 11:06:08 51°25.043 3°15.708 261.8 3.4 264 16.4
2004-04-01 11:07:09 51°25.034 3°15.618 257.6 3.4 261 16.4
2004-04-01 11:08:09 51°25.032 3°15.527 271.4 3.5 275 16.4
2004-04-01 11:09:08 51°25.048 3°15.438 289.3 3.6 295 16.3
2004-04-01 11:10:09 51°25.071 3°15.35 283.3 3.4 290 16
2004-04-01 11:11:09 51°25.092 3°15.268 284.4 3.3 293 15.6
2004-04-01 11:12:08 51°25.108 3°15.189 274.3 3.1 282 15.4
2004-04-01 11:13:09 51°25.11 3°15.108 260.9 2.9 264 15.3
2004-04-01 11:14:09 51°25.102 3°15.029 255.1 3 259 15.4
2004-04-01 11:15:09 51°25.09 3°14.95 254.9 3.1 258 15.4
2004-04-01 11:16:09 51°25.079 3°14.868 255.4 3.2 257 15.4
2004-04-01 11:17:09 51°25.067 3°14.786 256 3.3 259 15.4
2004-04-01 11:18:09 51°25.055 3°14.7 258.4 3.3 261 15.4
2004-04-01 11:19:09 51°25.047 3°14.611 262.8 3.4 265 15.5
2004-04-01 11:20:09 51°25.044 3°14.521 267 3.5 266 15.5
2004-04-01 11:21:09 51°25.047 3°14.425 273.8 3.6 276 15.3
2004-04-01 11:22:09 51°25.06 3°14.331 283.2 3.6 286 15.2
2004-04-01 11:23:08 51°25.083 3°14.243 292.9 3.7 297 14.8
2004-04-01 11:24:09 51°25.119 3°14.156 304.5 4.1 310 14.4
2004-04-01 11:25:08 51°25.16 3°14.091 313.5 3.1 318 14
2004-04-01 11:26:08 51°25.198 3°14.045 319.8 2.6 325 13.8
2004-04-01 11:27:08 51°25.234 3°14.012 323.6 2.3 332 13.4
2004-04-01 11:28:08 51°25.265 3°13.986 316.4 2.1 330 13
2004-04-01 11:29:08 51°25.29 3°13.958 298.4 1.6 318 12.6
2004-04-01 11:30:09 51°25.308 3°13.93 287.9 1.3 309 12.5
2004-04-01 11:31:09 51°25.318 3°13.894 267.8 2.3 271 12.4
2004-04-01 11:32:09 51°25.273 3°13.842 192.4 5.3 183 12.6
2004-04-01 11:33:09 51°25.108 3°13.847 178.7 12.8 174 14
2004-04-01 11:34:09 51°24.901 3°13.954 161.9 13.6 155 16.4
2004-04-01 11:35:09 51°24.695 3°14.101 162.4 13.6 156 19.9
2004-04-01 11:36:08 51°24.492 3°14.252 161.5 13.7 154 19.7
2004-04-01 11:37:08 51°24.302 3°14.46 150 14 143 16
2004-04-01 11:38:09 51°24.115 3°14.685 149.9 13.8 143 12.2
2004-04-01 11:39:08 51°24.017 3°14.986 100.3 13.9 93 12.9
2004-04-01 11:40:08 51°24.009 3°15.271 102.9 7.8 96 13.9
2004-04-01 11:41:08 51°24.021 3°15.403 71.1 3.8 64 14.1
2004-04-01 11:42:08 51°24.059 3°15.485 57.7 4.4 51 14.1
2004-04-01 11:43:08 51°24.102 3°15.585 67.5 4.4 60 14
2004-04-01 11:44:08 51°24.128 3°15.686 84 3.9 74 14.1
2004-04-01 11:45:09 51°24.135 3°15.786 100.8 3.6 89 14.2
2004-04-01 11:46:08 51°24.128 3°15.876 116.5 3.4 104 14.3
2004-04-01 11:47:08 51°24.112 3°15.963 117.5 3.5 104 14.6
2004-04-01 11:48:09 51°24.096 3°16.054 122.4 3.6 110 14.6
2004-04-01 11:49:09 51°24.066 3°16.138 135.4 3.6 122 14.6
2004-04-01 11:50:09 51°24.033 3°16.218 133.1 3.7 124 14.7
2004-04-01 11:51:08 51°24.002 3°16.301 128.9 3.8 117 14.4
2004-04-01 11:52:09 51°23.976 3°16.395 123.2 3.9 112 14.3
2004-04-01 11:53:09 51°23.953 3°16.494 121.9 3.9 112 14.1
2004-04-01 11:54:08 51°23.926 3°16.585 128.7 3.8 119 13.9
2004-04-01 11:55:09 51°23.889 3°16.67 136.4 3.8 128 13.5
2004-04-01 11:56:08 51°23.85 3°16.746 131.3 3.8 123 13.3
2004-04-01 11:57:08 51°23.822 3°16.836 120.7 3.7 115 13.2
2004-04-01 11:58:09 51°23.794 3°16.928 127 3.8 120 13.1
2004-04-01 11:59:09 51°23.758 3°17.009 130.2 3.7 124 12.9
2004-04-01 12:00:09 51°23.726 3°17.095 123.3 3.8 116 12.7
2004-04-01 12:01:09 51°23.701 3°17.188 117.7 3.8 112 12.6
2004-04-01 12:02:08 51°23.675 3°17.277 124.9 3.7 119 12.4
2004-04-01 12:03:08 51°23.641 3°17.357 131.5 3.5 126 12.3
2004-04-01 12:04:09 51°23.604 3°17.431 136.7 3.5 132 11.9
2004-04-01 12:05:08 51°23.563 3°17.495 143.7 3.6 140 11.8
2004-04-01 12:06:09 51°23.513 3°17.554 151 3.8 147 11.7
2004-04-01 12:07:09 51°23.462 3°17.61 144.5 3.7 141 11.3
2004-04-01 12:08:09 51°23.416 3°17.679 138.6 3.8 134 11.5
2004-04-01 12:09:08 51°23.377 3°17.756 132.8 3.8 125 11.5
2004-04-01 12:10:08 51°23.337 3°17.832 142.7 3.7 136 11.2
2004-04-01 12:11:08 51°23.285 3°17.885 159.7 3.8 154 11
2004-04-01 12:12:09 51°23.223 3°17.896 191.4 3.5 190 10.5
2004-04-01 12:13:09 51°23.183 3°17.867 214.1 2.3 215 10.2
2004-04-01 12:14:09 51°23.16 3°17.828 230.1 1.8 235 10.1
2004-04-01 12:15:08 51°23.146 3°17.787 240.8 2.6 249 10
2004-04-01 12:16:08 51°23.145 3°17.618 283.4 8.6 281 9.8
2004-04-01 12:17:09 51°23.177 3°17.411 284.5 5.6 281 9.9
2004-04-01 12:18:09 51°23.172 3°17.309 254 3.1 254 9.9
2004-04-01 12:19:09 51°23.157 3°17.248 240.1 2.1 244 9.9
2004-04-01 12:20:09 51°23.143 3°17.207 233.8 1.5 240 9.8
2004-04-01 12:21:09 51°23.133 3°17.173 234.8 1.5 241 9.7
2004-04-01 12:22:09 51°23.105 3°17.002 262.4 10.9 261 9.5
2004-04-01 12:23:09 51°23.087 3°16.66 269.6 13.4 265 9.3
2004-04-01 12:24:09 51°23.049 3°16.304 263.6 13.7 260 9.4
2004-04-01 12:25:09 51°23.01 3°15.944 263.6 13.7 261 9.6
2004-04-01 12:26:09 51°22.972 3°15.582 264.1 13.8 261 9.8
2004-04-01 12:27:09 51°22.933 3°15.219 264 13.8 261 10.1
2004-04-01 12:28:08 51°22.896 3°14.861 264.4 13.9 260 10.4
2004-04-01 12:29:09 51°22.854 3°14.493 261.8 13.8 258 10.8
2004-04-01 12:30:09 51°22.809 3°14.134 262.4 13.7 259 11.3
2004-04-01 12:31:09 51°22.763 3°13.775 261.9 13.8 259 12
2004-04-01 12:32:08 51°22.719 3°13.423 262.3 13.7 259 12.8
2004-04-01 12:33:09 51°22.676 3°13.059 262.6 13.6 259 13.5
2004-04-01 12:34:08 51°22.634 3°12.707 262.5 13.7 260 14.3
2004-04-01 12:35:09 51°22.592 3°12.343 262.3 13.6 259 14.7
2004-04-01 12:36:08 51°22.55 3°11.992 260.9 13.7 258 15.3
2004-04-01 12:37:09 51°22.478 3°11.64 254 13.6 254 16
2004-04-01 12:38:08 51°22.496 3°11.285 288.1 13.9 286 16.2
2004-04-01 12:39:08 51°22.574 3°10.931 295.7 14.2 293 16
2004-04-01 12:40:08 51°22.654 3°10.581 288.2 13.9 284 15.7
2004-04-01 12:41:09 51°22.678 3°10.209 271.3 13.8 268 17.5
2004-04-01 12:42:09 51°22.658 3°9.844 265.5 13.7 263 15.4
2004-04-01 12:43:09 51°22.616 3°9.487 261.2 13.7 258 14
2004-04-01 12:44:08 51°22.53 3°9.167 234.6 13.3 232 14
2004-04-01 12:45:09 51°22.373 3°8.903 226.1 13.6 225 13.5
2004-04-01 12:46:09 51°22.214 3°8.649 227.1 13.6 225 13.2
2004-04-01 12:47:09 51°22.055 3°8.394 226.8 13.6 223 12.7
2004-04-01 12:48:08 51°21.896 3°8.148 226.4 13.6 224 12.1
2004-04-01 12:49:09 51°21.729 3°7.895 225.3 13.6 224 11.5
2004-04-01 12:50:09 51°21.566 3°7.644 226.4 13.6 223 10.9
2004-04-01 12:51:09 51°21.403 3°7.392 226.9 13.6 224 10.3
2004-04-01 12:52:09 51°21.237 3°7.143 225.5 13.6 223 9.6
2004-04-01 12:53:09 51°21.074 3°6.893 226.4 13.6 224 9
2004-04-01 12:54:09 51°20.91 3°6.645 225.4 13.5 222 8.4
2004-04-01 12:55:09 51°20.747 3°6.401 226.5 13.3 224 8.2
2004-04-01 12:56:09 51°20.584 3°6.16 227.2 13.3 224 8.3
2004-04-01 12:57:09 51°20.423 3°5.915 224 13.4 221 8.2
2004-04-01 12:58:09 51°20.262 3°5.667 225.5 13.3 222 8.3
2004-04-01 12:59:09 51°20.099 3°5.42 226.4 13.6 225 8.3
2004-04-01 13:00:09 51°19.96 3°5.137 236.3 13.6 233 8.4
2004-04-01 13:01:08 51°19.821 3°4.858 236.6 13.7 234 8.4
2004-04-01 13:02:09 51°19.685 3°4.56 235.8 13.6 232 8.6
2004-04-01 13:03:09 51°19.551 3°4.267 236.9 13.6 234 8.8
2004-04-01 13:04:08 51°19.42 3°3.979 237.5 13.6 234 8.4
2004-04-01 13:05:09 51°19.284 3°3.681 237.6 13.5 235 8.4
2004-04-01 13:06:09 51°19.151 3°3.392 237.3 13.6 234 8.3
2004-04-01 13:07:08 51°19.021 3°3.107 238 13.4 235 8.3
2004-04-01 13:08:09 51°18.884 3°2.818 235.4 13.3 233 8.6
2004-04-01 13:09:08 51°18.754 3°2.532 236.1 13.5 233 8.6
2004-04-01 13:10:09 51°18.623 3°2.236 238.4 13.5 235 8.3
2004-04-01 13:11:09 51°18.491 3°1.949 237.5 13.4 235 8.3
2004-04-01 13:12:09 51°18.358 3°1.661 235.6 13.5 234 8.3
2004-04-01 13:13:09 51°18.224 3°1.373 236.9 13.5 236 8.5
2004-04-01 13:14:08 51°18.093 3°1.086 235.1 13.6 233 8.6
2004-04-01 13:15:08 51°17.962 3°0.792 235.9 13.6 234 8.6
2004-04-01 13:16:08 51°17.828 3°0.496 235.5 13.6 234 9.1
2004-04-01 13:17:09 51°17.694 3°0.196 237.2 13.6 235 9.3
2004-04-01 13:18:09 51°17.562 2°59.899 235.9 13.7 235 9.5
2004-04-01 13:19:09 51°17.431 2°59.602 236.5 13.6 234 9.7
2004-04-01 13:20:09 51°17.299 2°59.305 236.9 13.7 236 9.7
2004-04-01 13:21:09 51°17.168 2°59.008 236.2 13.7 235 9.8
2004-04-01 13:22:09 51°17.037 2°58.71 236.6 13.7 236 9.8
2004-04-01 13:23:08 51°16.907 2°58.415 235.5 13.8 235 9.8
2004-04-01 13:24:09 51°16.771 2°58.11 236.2 13.9 234 9.6
2004-04-01 13:25:09 51°16.639 2°57.807 236.3 13.8 235 9.7
2004-04-01 13:26:09 51°16.507 2°57.505 237.4 13.7 235 9.6
2004-04-01 13:27:09 51°16.376 2°57.204 235.9 13.7 235 9.6
2004-04-01 13:28:09 51°16.244 2°56.903 236.9 13.8 235 9.4
2004-04-01 13:29:08 51°16.116 2°56.608 237 13.8 236 9.3
2004-04-01 13:30:09 51°15.982 2°56.305 236.2 13.7 234 9.1
2004-04-01 13:31:09 51°15.851 2°56.006 236.6 13.7 235 8.9
2004-04-01 13:32:08 51°15.716 2°55.719 230.4 13.7 228 8.8
2004-04-01 13:33:08 51°15.564 2°55.449 227.2 13.7 224 8.7
2004-04-01 13:34:09 51°15.391 2°55.201 220.5 13.5 218 8.4
2004-04-01 13:35:09 51°15.198 2°55.02 212.2 13.5 212 8.2
2004-04-01 13:36:08 51°14.989 2°54.913 190.5 13.8 190 9.1
2004-04-01 13:37:08 51°14.768 2°54.871 182.1 13.2 182 9.5
2004-04-01 13:38:09 51°14.549 2°54.884 169.8 12.5 168 10
2004-04-01 13:39:08 51°14.38 2°55.034 136.9 11.3 133 11.3